sensor_id;sensor_type;location;lat;lon;timestamp;P1;durP1;ratioP1;P2;durP2;ratioP2
69789;SDS011;57064;52.046;4.800;2022-10-30T00:00:30;19.70;;;10.48;;
69789;SDS011;57064;52.046;4.800;2022-10-30T00:02:56;20.85;;;10.23;;
69789;SDS011;57064;52.046;4.800;2022-10-30T00:05:22;23.30;;;10.00;;
69789;SDS011;57064;52.046;4.800;2022-10-30T00:07:48;22.85;;;10.98;;
69789;SDS011;57064;52.046;4.800;2022-10-30T00:10:14;27.60;;;11.90;;
69789;SDS011;57064;52.046;4.800;2022-10-30T00:12:41;19.05;;;9.73;;
69789;SDS011;57064;52.046;4.800;2022-10-30T00:15:07;23.58;;;11.35;;
69789;SDS011;57064;52.046;4.800;2022-10-30T00:17:34;25.33;;;10.50;;
69789;SDS011;57064;52.046;4.800;2022-10-30T00:20:00;26.13;;;10.57;;
69789;SDS011;57064;52.046;4.800;2022-10-30T00:22:27;25.33;;;10.73;;
69789;SDS011;57064;52.046;4.800;2022-10-30T00:24:53;20.15;;;10.98;;
69789;SDS011;57064;52.046;4.800;2022-10-30T00:27:19;18.98;;;10.35;;
69789;SDS011;57064;52.046;4.800;2022-10-30T00:29:45;24.05;;;10.52;;
69789;SDS011;57064;52.046;4.800;2022-10-30T00:32:12;22.80;;;10.77;;
69789;SDS011;57064;52.046;4.800;2022-10-30T00:34:38;24.08;;;11.00;;
69789;SDS011;57064;52.046;4.800;2022-10-30T00:37:04;17.83;;;10.07;;
69789;SDS011;57064;52.046;4.800;2022-10-30T00:39:30;18.67;;;10.23;;
69789;SDS011;57064;52.046;4.800;2022-10-30T00:41:56;22.40;;;10.50;;
69789;SDS011;57064;52.046;4.800;2022-10-30T00:52:42;18.73;;;10.32;;
69789;SDS011;57064;52.046;4.800;2022-10-30T00:55:18;22.85;;;11.02;;
69789;SDS011;57064;52.046;4.800;2022-10-30T00:57:48;23.77;;;10.80;;
69789;SDS011;57064;52.046;4.800;2022-10-30T01:00:15;26.30;;;10.93;;
69789;SDS011;57064;52.046;4.800;2022-10-30T01:02:42;25.35;;;10.95;;
69789;SDS011;57064;52.046;4.800;2022-10-30T01:05:09;24.52;;;11.15;;
69789;SDS011;57064;52.046;4.800;2022-10-30T01:07:39;24.20;;;11.57;;
69789;SDS011;57064;52.046;4.800;2022-10-30T01:10:05;23.88;;;11.73;;
69789;SDS011;57064;52.046;4.800;2022-10-30T01:12:32;21.45;;;10.77;;
69789;SDS011;57064;52.046;4.800;2022-10-30T01:14:58;23.25;;;11.52;;
69789;SDS011;57064;52.046;4.800;2022-10-30T01:20:35;21.58;;;11.43;;
69789;SDS011;57064;52.046;4.800;2022-10-30T01:28:48;28.05;;;12.45;;
69789;SDS011;57064;52.046;4.800;2022-10-30T01:36:45;27.30;;;12.90;;
69789;SDS011;57064;52.046;4.800;2022-10-30T01:39:26;20.92;;;11.23;;
69789;SDS011;57064;52.046;4.800;2022-10-30T01:45:06;24.40;;;11.65;;
69789;SDS011;57064;52.046;4.800;2022-10-30T01:53:28;26.50;;;10.93;;
69789;SDS011;57064;52.046;4.800;2022-10-30T01:58:50;22.77;;;11.15;;
69789;SDS011;57064;52.046;4.800;2022-10-30T02:01:31;24.88;;;12.68;;
69789;SDS011;57064;52.046;4.800;2022-10-30T02:03:59;21.67;;;11.45;;
69789;SDS011;57064;52.046;4.800;2022-10-30T02:06:26;27.15;;;12.23;;
69789;SDS011;57064;52.046;4.800;2022-10-30T02:08:55;22.75;;;11.50;;
69789;SDS011;57064;52.046;4.800;2022-10-30T02:11:22;24.58;;;11.73;;
69789;SDS011;57064;52.046;4.800;2022-10-30T02:13:49;26.85;;;12.65;;
69789;SDS011;57064;52.046;4.800;2022-10-30T02:16:18;23.42;;;11.52;;
69789;SDS011;57064;52.046;4.800;2022-10-30T02:18:45;29.38;;;11.73;;
69789;SDS011;57064;52.046;4.800;2022-10-30T02:21:11;26.45;;;11.93;;
69789;SDS011;57064;52.046;4.800;2022-10-30T02:23:37;21.83;;;11.48;;
69789;SDS011;57064;52.046;4.800;2022-10-30T02:26:03;20.75;;;11.30;;
69789;SDS011;57064;52.046;4.800;2022-10-30T02:28:30;24.33;;;11.75;;
69789;SDS011;57064;52.046;4.800;2022-10-30T02:30:56;19.13;;;11.43;;
69789;SDS011;57064;52.046;4.800;2022-10-30T02:33:22;21.73;;;12.07;;
69789;SDS011;57064;52.046;4.800;2022-10-30T02:35:48;31.73;;;14.18;;
69789;SDS011;57064;52.046;4.800;2022-10-30T02:38:15;24.48;;;11.70;;
69789;SDS011;57064;52.046;4.800;2022-10-30T02:40:41;22.73;;;12.35;;
69789;SDS011;57064;52.046;4.800;2022-10-30T02:43:07;26.33;;;11.95;;
69789;SDS011;57064;52.046;4.800;2022-10-30T02:45:33;22.27;;;12.25;;
69789;SDS011;57064;52.046;4.800;2022-10-30T02:47:59;28.63;;;12.52;;
69789;SDS011;57064;52.046;4.800;2022-10-30T02:50:25;25.10;;;11.85;;
69789;SDS011;57064;52.046;4.800;2022-10-30T02:52:52;26.85;;;13.10;;
69789;SDS011;57064;52.046;4.800;2022-10-30T02:55:18;28.50;;;13.68;;
69789;SDS011;57064;52.046;4.800;2022-10-30T02:57:44;26.08;;;12.77;;
69789;SDS011;57064;52.046;4.800;2022-10-30T03:00:10;24.15;;;12.90;;
69789;SDS011;57064;52.046;4.800;2022-10-30T03:02:37;24.27;;;11.60;;
69789;SDS011;57064;52.046;4.800;2022-10-30T03:05:03;29.35;;;12.90;;
69789;SDS011;57064;52.046;4.800;2022-10-30T03:07:29;25.83;;;11.45;;
69789;SDS011;57064;52.046;4.800;2022-10-30T03:09:55;27.00;;;12.77;;
69789;SDS011;57064;52.046;4.800;2022-10-30T03:12:21;26.20;;;12.63;;
69789;SDS011;57064;52.046;4.800;2022-10-30T03:14:47;23.27;;;12.98;;
69789;SDS011;57064;52.046;4.800;2022-10-30T03:17:13;32.50;;;13.43;;
69789;SDS011;57064;52.046;4.800;2022-10-30T03:19:40;25.23;;;12.43;;
69789;SDS011;57064;52.046;4.800;2022-10-30T03:22:06;29.38;;;13.45;;
69789;SDS011;57064;52.046;4.800;2022-10-30T03:24:32;38.17;;;13.32;;
69789;SDS011;57064;52.046;4.800;2022-10-30T03:26:58;34.47;;;13.77;;
69789;SDS011;57064;52.046;4.800;2022-10-30T03:29:24;24.42;;;13.07;;
69789;SDS011;57064;52.046;4.800;2022-10-30T03:31:50;32.33;;;13.95;;
69789;SDS011;57064;52.046;4.800;2022-10-30T03:34:16;28.98;;;13.65;;
69789;SDS011;57064;52.046;4.800;2022-10-30T03:36:42;25.48;;;13.73;;
69789;SDS011;57064;52.046;4.800;2022-10-30T03:39:08;29.23;;;13.77;;
69789;SDS011;57064;52.046;4.800;2022-10-30T03:41:34;26.58;;;13.60;;
69789;SDS011;57064;52.046;4.800;2022-10-30T03:44:00;29.20;;;13.82;;
69789;SDS011;57064;52.046;4.800;2022-10-30T03:46:26;25.85;;;13.85;;
69789;SDS011;57064;52.046;4.800;2022-10-30T03:48:52;33.10;;;15.80;;
69789;SDS011;57064;52.046;4.800;2022-10-30T03:51:18;30.35;;;15.00;;
69789;SDS011;57064;52.046;4.800;2022-10-30T03:53:44;34.30;;;14.45;;
69789;SDS011;57064;52.046;4.800;2022-10-30T03:56:10;25.23;;;14.05;;
69789;SDS011;57064;52.046;4.800;2022-10-30T03:58:36;30.77;;;13.98;;
69789;SDS011;57064;52.046;4.800;2022-10-30T04:01:03;38.03;;;15.82;;
69789;SDS011;57064;52.046;4.800;2022-10-30T04:03:30;35.38;;;14.93;;
69789;SDS011;57064;52.046;4.800;2022-10-30T04:05:56;34.53;;;14.98;;
69789;SDS011;57064;52.046;4.800;2022-10-30T04:08:22;35.53;;;14.88;;
69789;SDS011;57064;52.046;4.800;2022-10-30T04:10:48;34.92;;;15.20;;
69789;SDS011;57064;52.046;4.800;2022-10-30T04:13:15;31.00;;;14.73;;
69789;SDS011;57064;52.046;4.800;2022-10-30T04:15:41;32.92;;;14.50;;
69789;SDS011;57064;52.046;4.800;2022-10-30T04:18:09;29.55;;;14.75;;
69789;SDS011;57064;52.046;4.800;2022-10-30T04:20:36;33.25;;;15.93;;
69789;SDS011;57064;52.046;4.800;2022-10-30T04:23:04;37.35;;;15.52;;
69789;SDS011;57064;52.046;4.800;2022-10-30T04:25:34;32.03;;;15.07;;
69789;SDS011;57064;52.046;4.800;2022-10-30T04:28:01;32.33;;;14.88;;
69789;SDS011;57064;52.046;4.800;2022-10-30T04:30:27;32.80;;;16.40;;
69789;SDS011;57064;52.046;4.800;2022-10-30T04:32:58;33.97;;;14.52;;
69789;SDS011;57064;52.046;4.800;2022-10-30T04:35:24;35.08;;;15.20;;
69789;SDS011;57064;52.046;4.800;2022-10-30T04:40:22;34.05;;;16.25;;
69789;SDS011;57064;52.046;4.800;2022-10-30T04:42:50;37.88;;;17.90;;
69789;SDS011;57064;52.046;4.800;2022-10-30T04:45:16;39.65;;;16.50;;
69789;SDS011;57064;52.046;4.800;2022-10-30T04:47:42;32.78;;;15.98;;
69789;SDS011;57064;52.046;4.800;2022-10-30T04:50:09;36.95;;;17.38;;
69789;SDS011;57064;52.046;4.800;2022-10-30T04:52:35;36.20;;;17.05;;
69789;SDS011;57064;52.046;4.800;2022-10-30T04:55:02;34.97;;;16.95;;
69789;SDS011;57064;52.046;4.800;2022-10-30T04:57:28;42.00;;;17.13;;
69789;SDS011;57064;52.046;4.800;2022-10-30T04:59:56;42.80;;;17.08;;
69789;SDS011;57064;52.046;4.800;2022-10-30T05:02:24;39.95;;;16.67;;
69789;SDS011;57064;52.046;4.800;2022-10-30T05:04:51;36.60;;;16.88;;
69789;SDS011;57064;52.046;4.800;2022-10-30T05:07:17;31.30;;;16.58;;
69789;SDS011;57064;52.046;4.800;2022-10-30T05:09:43;37.03;;;17.00;;
69789;SDS011;57064;52.046;4.800;2022-10-30T05:12:09;42.65;;;17.83;;
69789;SDS011;57064;52.046;4.800;2022-10-30T05:14:35;39.65;;;17.90;;
69789;SDS011;57064;52.046;4.800;2022-10-30T05:17:01;34.28;;;16.80;;
69789;SDS011;57064;52.046;4.800;2022-10-30T05:19:27;47.85;;;17.88;;
69789;SDS011;57064;52.046;4.800;2022-10-30T05:21:53;39.78;;;18.13;;
69789;SDS011;57064;52.046;4.800;2022-10-30T05:24:19;39.33;;;16.60;;
69789;SDS011;57064;52.046;4.800;2022-10-30T05:26:45;38.67;;;16.77;;
69789;SDS011;57064;52.046;4.800;2022-10-30T05:29:12;37.95;;;17.30;;
69789;SDS011;57064;52.046;4.800;2022-10-30T05:31:38;37.13;;;16.48;;
69789;SDS011;57064;52.046;4.800;2022-10-30T05:34:04;40.03;;;16.55;;
69789;SDS011;57064;52.046;4.800;2022-10-30T05:36:30;35.88;;;18.08;;
69789;SDS011;57064;52.046;4.800;2022-10-30T05:38:56;35.90;;;17.60;;
69789;SDS011;57064;52.046;4.800;2022-10-30T05:41:22;38.75;;;18.40;;
69789;SDS011;57064;52.046;4.800;2022-10-30T05:43:48;39.45;;;16.98;;
69789;SDS011;57064;52.046;4.800;2022-10-30T05:46:14;41.17;;;18.58;;
69789;SDS011;57064;52.046;4.800;2022-10-30T05:48:40;45.55;;;19.58;;
69789;SDS011;57064;52.046;4.800;2022-10-30T05:51:06;34.70;;;17.50;;
69789;SDS011;57064;52.046;4.800;2022-10-30T05:53:32;38.25;;;19.52;;
69789;SDS011;57064;52.046;4.800;2022-10-30T05:55:59;43.03;;;17.88;;
69789;SDS011;57064;52.046;4.800;2022-10-30T05:58:25;37.97;;;18.23;;
69789;SDS011;57064;52.046;4.800;2022-10-30T06:00:51;36.53;;;17.52;;
69789;SDS011;57064;52.046;4.800;2022-10-30T06:03:17;38.50;;;17.42;;
69789;SDS011;57064;52.046;4.800;2022-10-30T06:05:44;44.22;;;17.63;;
69789;SDS011;57064;52.046;4.800;2022-10-30T06:08:10;45.30;;;18.58;;
69789;SDS011;57064;52.046;4.800;2022-10-30T06:10:37;38.25;;;16.70;;
69789;SDS011;57064;52.046;4.800;2022-10-30T06:13:04;33.42;;;17.77;;
69789;SDS011;57064;52.046;4.800;2022-10-30T06:15:31;43.53;;;18.88;;
69789;SDS011;57064;52.046;4.800;2022-10-30T06:17:57;37.47;;;17.58;;
69789;SDS011;57064;52.046;4.800;2022-10-30T06:20:25;40.65;;;18.83;;
69789;SDS011;57064;52.046;4.800;2022-10-30T06:22:53;44.30;;;18.60;;
69789;SDS011;57064;52.046;4.800;2022-10-30T06:25:27;50.08;;;19.27;;
69789;SDS011;57064;52.046;4.800;2022-10-30T06:27:54;39.83;;;18.60;;
69789;SDS011;57064;52.046;4.800;2022-10-30T06:30:20;38.63;;;18.38;;
69789;SDS011;57064;52.046;4.800;2022-10-30T06:32:47;42.47;;;18.25;;
69789;SDS011;57064;52.046;4.800;2022-10-30T06:35:13;50.65;;;20.45;;
69789;SDS011;57064;52.046;4.800;2022-10-30T06:37:49;55.38;;;19.70;;
69789;SDS011;57064;52.046;4.800;2022-10-30T06:40:17;43.05;;;19.65;;
69789;SDS011;57064;52.046;4.800;2022-10-30T06:45:11;45.13;;;20.58;;
69789;SDS011;57064;52.046;4.800;2022-10-30T06:47:37;49.70;;;19.30;;
69789;SDS011;57064;52.046;4.800;2022-10-30T06:50:04;47.20;;;19.92;;
69789;SDS011;57064;52.046;4.800;2022-10-30T06:52:33;39.70;;;18.88;;
69789;SDS011;57064;52.046;4.800;2022-10-30T06:54:59;44.50;;;19.83;;
69789;SDS011;57064;52.046;4.800;2022-10-30T06:57:25;37.13;;;19.00;;
69789;SDS011;57064;52.046;4.800;2022-10-30T06:59:51;43.63;;;19.27;;
69789;SDS011;57064;52.046;4.800;2022-10-30T07:02:17;42.95;;;18.33;;
69789;SDS011;57064;52.046;4.800;2022-10-30T07:04:43;45.72;;;19.45;;
69789;SDS011;57064;52.046;4.800;2022-10-30T07:07:10;51.00;;;20.95;;
69789;SDS011;57064;52.046;4.800;2022-10-30T07:09:37;44.88;;;20.73;;
69789;SDS011;57064;52.046;4.800;2022-10-30T07:12:03;46.80;;;19.45;;
69789;SDS011;57064;52.046;4.800;2022-10-30T07:14:29;51.28;;;22.40;;
69789;SDS011;57064;52.046;4.800;2022-10-30T07:16:56;46.97;;;21.00;;
69789;SDS011;57064;52.046;4.800;2022-10-30T07:19:22;43.35;;;20.75;;
69789;SDS011;57064;52.046;4.800;2022-10-30T07:21:48;47.97;;;22.40;;
69789;SDS011;57064;52.046;4.800;2022-10-30T07:24:14;48.55;;;20.92;;
69789;SDS011;57064;52.046;4.800;2022-10-30T07:26:40;45.17;;;21.35;;
69789;SDS011;57064;52.046;4.800;2022-10-30T07:29:06;53.40;;;21.20;;
69789;SDS011;57064;52.046;4.800;2022-10-30T07:31:33;46.50;;;22.20;;
69789;SDS011;57064;52.046;4.800;2022-10-30T07:33:59;45.45;;;21.35;;
69789;SDS011;57064;52.046;4.800;2022-10-30T07:36:25;50.05;;;21.60;;
69789;SDS011;57064;52.046;4.800;2022-10-30T07:38:51;51.50;;;21.15;;
69789;SDS011;57064;52.046;4.800;2022-10-30T07:41:17;45.65;;;20.88;;
69789;SDS011;57064;52.046;4.800;2022-10-30T07:43:44;45.17;;;21.30;;
69789;SDS011;57064;52.046;4.800;2022-10-30T07:46:11;44.13;;;22.08;;
69789;SDS011;57064;52.046;4.800;2022-10-30T07:48:38;46.75;;;21.10;;
69789;SDS011;57064;52.046;4.800;2022-10-30T07:51:04;37.33;;;19.08;;
69789;SDS011;57064;52.046;4.800;2022-10-30T07:53:31;43.35;;;20.30;;
69789;SDS011;57064;52.046;4.800;2022-10-30T07:55:57;39.63;;;17.92;;
69789;SDS011;57064;52.046;4.800;2022-10-30T07:58:23;43.83;;;18.77;;
69789;SDS011;57064;52.046;4.800;2022-10-30T08:00:49;37.00;;;19.55;;
69789;SDS011;57064;52.046;4.800;2022-10-30T08:03:15;39.92;;;19.27;;
69789;SDS011;57064;52.046;4.800;2022-10-30T08:05:41;40.15;;;19.35;;
69789;SDS011;57064;52.046;4.800;2022-10-30T08:08:07;38.28;;;19.52;;
69789;SDS011;57064;52.046;4.800;2022-10-30T08:10:34;30.63;;;17.42;;
69789;SDS011;57064;52.046;4.800;2022-10-30T08:13:00;35.30;;;16.80;;
69789;SDS011;57064;52.046;4.800;2022-10-30T08:15:27;33.35;;;16.98;;
69789;SDS011;57064;52.046;4.800;2022-10-30T08:17:53;40.25;;;19.90;;
69789;SDS011;57064;52.046;4.800;2022-10-30T08:20:20;47.35;;;25.83;;
69789;SDS011;57064;52.046;4.800;2022-10-30T08:22:48;47.15;;;24.17;;
69789;SDS011;57064;52.046;4.800;2022-10-30T08:25:20;40.80;;;17.88;;
69789;SDS011;57064;52.046;4.800;2022-10-30T08:27:58;29.05;;;15.73;;
69789;SDS011;57064;52.046;4.800;2022-10-30T08:30:27;32.85;;;16.50;;
69789;SDS011;57064;52.046;4.800;2022-10-30T08:32:57;32.28;;;15.88;;
69789;SDS011;57064;52.046;4.800;2022-10-30T08:35:25;31.30;;;16.20;;
69789;SDS011;57064;52.046;4.800;2022-10-30T08:37:54;26.52;;;15.07;;
69789;SDS011;57064;52.046;4.800;2022-10-30T08:40:21;30.70;;;14.95;;
69789;SDS011;57064;52.046;4.800;2022-10-30T08:42:51;31.85;;;14.35;;
69789;SDS011;57064;52.046;4.800;2022-10-30T08:45:18;23.45;;;15.02;;
69789;SDS011;57064;52.046;4.800;2022-10-30T08:47:45;21.17;;;12.60;;
69789;SDS011;57064;52.046;4.800;2022-10-30T08:50:12;24.27;;;14.23;;
69789;SDS011;57064;52.046;4.800;2022-10-30T08:52:38;22.75;;;12.95;;
69789;SDS011;57064;52.046;4.800;2022-10-30T08:55:04;25.25;;;12.90;;
69789;SDS011;57064;52.046;4.800;2022-10-30T08:57:36;22.20;;;12.07;;
69789;SDS011;57064;52.046;4.800;2022-10-30T09:00:03;20.27;;;11.00;;
69789;SDS011;57064;52.046;4.800;2022-10-30T09:02:29;20.52;;;11.35;;
69789;SDS011;57064;52.046;4.800;2022-10-30T09:04:56;20.13;;;11.15;;
69789;SDS011;57064;52.046;4.800;2022-10-30T09:07:22;19.45;;;11.13;;
69789;SDS011;57064;52.046;4.800;2022-10-30T09:09:48;22.45;;;11.35;;
69789;SDS011;57064;52.046;4.800;2022-10-30T09:12:14;21.73;;;10.60;;
69789;SDS011;57064;52.046;4.800;2022-10-30T09:14:40;19.13;;;10.90;;
69789;SDS011;57064;52.046;4.800;2022-10-30T09:17:07;22.60;;;11.20;;
69789;SDS011;57064;52.046;4.800;2022-10-30T09:19:33;26.50;;;11.73;;
69789;SDS011;57064;52.046;4.800;2022-10-30T09:21:59;29.10;;;11.10;;
69789;SDS011;57064;52.046;4.800;2022-10-30T09:24:25;25.60;;;10.95;;
69789;SDS011;57064;52.046;4.800;2022-10-30T09:26:51;22.90;;;11.13;;
69789;SDS011;57064;52.046;4.800;2022-10-30T09:29:18;18.42;;;10.48;;
69789;SDS011;57064;52.046;4.800;2022-10-30T09:31:44;19.70;;;10.07;;
69789;SDS011;57064;52.046;4.800;2022-10-30T09:34:10;21.40;;;11.15;;
69789;SDS011;57064;52.046;4.800;2022-10-30T09:36:36;21.90;;;10.32;;
69789;SDS011;57064;52.046;4.800;2022-10-30T09:39:02;22.15;;;10.30;;
69789;SDS011;57064;52.046;4.800;2022-10-30T09:55:19;27.48;;;11.30;;
69789;SDS011;57064;52.046;4.800;2022-10-30T10:00:40;18.80;;;10.15;;
69789;SDS011;57064;52.046;4.800;2022-10-30T10:06:26;22.30;;;10.95;;
69789;SDS011;57064;52.046;4.800;2022-10-30T10:08:54;21.13;;;11.27;;
69789;SDS011;57064;52.046;4.800;2022-10-30T10:11:26;17.13;;;10.85;;
69789;SDS011;57064;52.046;4.800;2022-10-30T10:14:06;22.73;;;11.07;;
69789;SDS011;57064;52.046;4.800;2022-10-30T10:16:42;16.45;;;10.18;;
69789;SDS011;57064;52.046;4.800;2022-10-30T10:19:14;20.55;;;9.90;;
69789;SDS011;57064;52.046;4.800;2022-10-30T10:22:02;21.00;;;10.93;;
69789;SDS011;57064;52.046;4.800;2022-10-30T10:24:38;18.00;;;9.65;;
69789;SDS011;57064;52.046;4.800;2022-10-30T10:30:13;23.48;;;9.82;;
69789;SDS011;57064;52.046;4.800;2022-10-30T10:41:03;20.33;;;10.52;;
69789;SDS011;57064;52.046;4.800;2022-10-30T10:54:53;22.90;;;10.32;;
69789;SDS011;57064;52.046;4.800;2022-10-30T11:00:21;21.10;;;10.10;;
69789;SDS011;57064;52.046;4.800;2022-10-30T11:03:51;23.40;;;10.30;;
69789;SDS011;57064;52.046;4.800;2022-10-30T11:05:57;20.77;;;10.25;;
69789;SDS011;57064;52.046;4.800;2022-10-30T11:08:29;32.25;;;11.93;;
69789;SDS011;57064;52.046;4.800;2022-10-30T11:11:00;21.20;;;9.73;;
69789;SDS011;57064;52.046;4.800;2022-10-30T11:13:28;17.58;;;9.05;;
69789;SDS011;57064;52.046;4.800;2022-10-30T11:18:44;23.67;;;9.95;;
69789;SDS011;57064;52.046;4.800;2022-10-30T11:21:14;31.33;;;11.10;;
69789;SDS011;57064;52.046;4.800;2022-10-30T11:23:47;19.75;;;9.35;;
69789;SDS011;57064;52.046;4.800;2022-10-30T11:28:53;21.38;;;10.27;;
69789;SDS011;57064;52.046;4.800;2022-10-30T11:31:33;15.30;;;8.98;;
69789;SDS011;57064;52.046;4.800;2022-10-30T11:36:47;19.63;;;10.10;;
69789;SDS011;57064;52.046;4.800;2022-10-30T11:39:16;20.98;;;9.07;;
69789;SDS011;57064;52.046;4.800;2022-10-30T11:41:43;21.42;;;9.73;;
69789;SDS011;57064;52.046;4.800;2022-10-30T11:44:26;16.55;;;10.15;;
69789;SDS011;57064;52.046;4.800;2022-10-30T11:46:59;23.83;;;10.35;;
69789;SDS011;57064;52.046;4.800;2022-10-30T11:52:02;22.65;;;10.07;;
69789;SDS011;57064;52.046;4.800;2022-10-30T11:54:33;20.40;;;9.65;;
69789;SDS011;57064;52.046;4.800;2022-10-30T11:57:01;21.80;;;10.88;;
69789;SDS011;57064;52.046;4.800;2022-10-30T11:59:28;21.92;;;9.93;;
69789;SDS011;57064;52.046;4.800;2022-10-30T12:01:58;21.98;;;11.02;;
69789;SDS011;57064;52.046;4.800;2022-10-30T12:04:42;22.60;;;9.82;;
69789;SDS011;57064;52.046;4.800;2022-10-30T12:09:53;20.52;;;10.43;;
69789;SDS011;57064;52.046;4.800;2022-10-30T12:14:48;17.23;;;10.13;;
69789;SDS011;57064;52.046;4.800;2022-10-30T12:17:15;20.17;;;10.55;;
69789;SDS011;57064;52.046;4.800;2022-10-30T12:19:52;21.88;;;10.75;;
69789;SDS011;57064;52.046;4.800;2022-10-30T12:22:31;20.67;;;10.05;;
69789;SDS011;57064;52.046;4.800;2022-10-30T12:24:59;21.52;;;9.48;;
69789;SDS011;57064;52.046;4.800;2022-10-30T12:27:28;21.42;;;10.23;;
69789;SDS011;57064;52.046;4.800;2022-10-30T12:32:51;19.38;;;10.25;;
69789;SDS011;57064;52.046;4.800;2022-10-30T12:43:34;20.02;;;10.57;;
69789;SDS011;57064;52.046;4.800;2022-10-30T12:48:56;23.02;;;10.38;;
69789;SDS011;57064;52.046;4.800;2022-10-30T12:51:41;18.63;;;10.23;;
69789;SDS011;57064;52.046;4.800;2022-10-30T12:54:20;22.00;;;10.90;;
69789;SDS011;57064;52.046;4.800;2022-10-30T12:57:04;19.83;;;9.93;;
69789;SDS011;57064;52.046;4.800;2022-10-30T13:10:53;19.08;;;10.18;;
69789;SDS011;57064;52.046;4.800;2022-10-30T13:13:43;22.83;;;9.98;;
69789;SDS011;57064;52.046;4.800;2022-10-30T13:16:15;20.92;;;10.38;;
69789;SDS011;57064;52.046;4.800;2022-10-30T13:18:56;20.30;;;9.75;;
69789;SDS011;57064;52.046;4.800;2022-10-30T13:21:28;26.15;;;11.43;;
69789;SDS011;57064;52.046;4.800;2022-10-30T13:24:14;15.52;;;9.88;;
69789;SDS011;57064;52.046;4.800;2022-10-30T13:29:23;17.20;;;9.00;;
69789;SDS011;57064;52.046;4.800;2022-10-30T13:34:58;22.00;;;9.48;;
69789;SDS011;57064;52.046;4.800;2022-10-30T13:40:00;21.83;;;11.40;;
69789;SDS011;57064;52.046;4.800;2022-10-30T13:51:27;18.42;;;9.10;;
69789;SDS011;57064;52.046;4.800;2022-10-30T13:54:12;16.42;;;9.02;;
69789;SDS011;57064;52.046;4.800;2022-10-30T13:56:42;19.48;;;9.60;;
69789;SDS011;57064;52.046;4.800;2022-10-30T14:01:43;20.20;;;9.50;;
69789;SDS011;57064;52.046;4.800;2022-10-30T14:04:23;19.45;;;9.18;;
69789;SDS011;57064;52.046;4.800;2022-10-30T14:09:49;14.27;;;7.85;;
69789;SDS011;57064;52.046;4.800;2022-10-30T14:20:45;17.70;;;10.15;;
69789;SDS011;57064;52.046;4.800;2022-10-30T14:28:28;24.17;;;10.77;;
69789;SDS011;57064;52.046;4.800;2022-10-30T14:31:05;20.33;;;10.05;;
69789;SDS011;57064;52.046;4.800;2022-10-30T14:36:17;21.98;;;9.45;;
69789;SDS011;57064;52.046;4.800;2022-10-30T14:44:47;16.90;;;9.00;;
69789;SDS011;57064;52.046;4.800;2022-10-30T14:59:07;11.93;;;5.70;;
69789;SDS011;57064;52.046;4.800;2022-10-30T15:01:42;12.63;;;6.15;;
69789;SDS011;57064;52.046;4.800;2022-10-30T15:13:14;6.38;;;2.83;;
69789;SDS011;57064;52.046;4.800;2022-10-30T15:15:11;9.13;;;2.80;;
69789;SDS011;57064;52.046;4.800;2022-10-30T15:17:43;7.20;;;2.60;;
69789;SDS011;57064;52.046;4.800;2022-10-30T15:20:24;7.75;;;3.00;;
69789;SDS011;57064;52.046;4.800;2022-10-30T15:23:00;6.47;;;3.22;;
69789;SDS011;57064;52.046;4.800;2022-10-30T15:25:36;7.07;;;3.55;;
69789;SDS011;57064;52.046;4.800;2022-10-30T15:28:17;9.38;;;3.88;;
69789;SDS011;57064;52.046;4.800;2022-10-30T15:33:50;12.38;;;4.82;;
69789;SDS011;57064;52.046;4.800;2022-10-30T15:36:22;9.40;;;4.18;;
69789;SDS011;57064;52.046;4.800;2022-10-30T15:39:03;12.88;;;5.03;;
69789;SDS011;57064;52.046;4.800;2022-10-30T15:41:29;12.95;;;4.38;;
69789;SDS011;57064;52.046;4.800;2022-10-30T15:43:57;11.10;;;4.10;;
69789;SDS011;57064;52.046;4.800;2022-10-30T15:46:23;12.38;;;4.38;;
69789;SDS011;57064;52.046;4.800;2022-10-30T15:48:49;13.93;;;5.40;;
69789;SDS011;57064;52.046;4.800;2022-10-30T15:51:16;12.15;;;4.78;;
69789;SDS011;57064;52.046;4.800;2022-10-30T15:53:47;12.48;;;4.07;;
69789;SDS011;57064;52.046;4.800;2022-10-30T15:56:21;9.98;;;3.67;;
69789;SDS011;57064;52.046;4.800;2022-10-30T15:58:58;13.68;;;4.55;;
69789;SDS011;57064;52.046;4.800;2022-10-30T16:03:55;15.52;;;3.90;;
69789;SDS011;57064;52.046;4.800;2022-10-30T16:06:23;10.02;;;3.65;;
69789;SDS011;57064;52.046;4.800;2022-10-30T16:08:50;11.63;;;3.65;;
69789;SDS011;57064;52.046;4.800;2022-10-30T16:11:16;13.20;;;3.30;;
69789;SDS011;57064;52.046;4.800;2022-10-30T16:13:45;7.47;;;3.00;;
69789;SDS011;57064;52.046;4.800;2022-10-30T16:16:33;11.27;;;3.63;;
69789;SDS011;57064;52.046;4.800;2022-10-30T16:18:58;12.13;;;3.67;;
69789;SDS011;57064;52.046;4.800;2022-10-30T16:21:26;11.68;;;3.90;;
69789;SDS011;57064;52.046;4.800;2022-10-30T16:23:55;11.68;;;3.60;;
69789;SDS011;57064;52.046;4.800;2022-10-30T16:26:27;11.60;;;3.20;;
69789;SDS011;57064;52.046;4.800;2022-10-30T16:29:07;8.77;;;3.10;;
69789;SDS011;57064;52.046;4.800;2022-10-30T16:31:42;8.90;;;3.42;;
69789;SDS011;57064;52.046;4.800;2022-10-30T16:36:47;12.15;;;4.60;;
69789;SDS011;57064;52.046;4.800;2022-10-30T16:39:14;16.10;;;4.80;;
69789;SDS011;57064;52.046;4.800;2022-10-30T16:41:42;9.13;;;4.97;;
69789;SDS011;57064;52.046;4.800;2022-10-30T16:46:38;14.00;;;6.10;;
69789;SDS011;57064;52.046;4.800;2022-10-30T16:49:17;15.85;;;6.03;;
69789;SDS011;57064;52.046;4.800;2022-10-30T16:51:45;12.75;;;5.60;;
69789;SDS011;57064;52.046;4.800;2022-10-30T16:54:18;10.80;;;4.97;;
69789;SDS011;57064;52.046;4.800;2022-10-30T16:56:46;18.30;;;5.75;;
69789;SDS011;57064;52.046;4.800;2022-10-30T16:59:15;10.52;;;5.53;;
69789;SDS011;57064;52.046;4.800;2022-10-30T17:01:52;9.35;;;4.82;;
69789;SDS011;57064;52.046;4.800;2022-10-30T17:04:20;7.60;;;4.55;;
69789;SDS011;57064;52.046;4.800;2022-10-30T17:06:46;12.23;;;5.70;;
69789;SDS011;57064;52.046;4.800;2022-10-30T17:09:19;11.93;;;5.68;;
69789;SDS011;57064;52.046;4.800;2022-10-30T17:14:49;13.90;;;5.75;;
69789;SDS011;57064;52.046;4.800;2022-10-30T17:17:19;14.95;;;6.32;;
69789;SDS011;57064;52.046;4.800;2022-10-30T17:19:48;15.10;;;6.45;;
69789;SDS011;57064;52.046;4.800;2022-10-30T17:22:19;15.20;;;6.28;;
69789;SDS011;57064;52.046;4.800;2022-10-30T17:24:46;14.93;;;6.28;;
69789;SDS011;57064;52.046;4.800;2022-10-30T17:29:59;11.27;;;6.20;;
69789;SDS011;57064;52.046;4.800;2022-10-30T17:32:26;18.52;;;7.85;;
69789;SDS011;57064;52.046;4.800;2022-10-30T17:35:15;18.92;;;8.55;;
69789;SDS011;57064;52.046;4.800;2022-10-30T17:37:43;17.52;;;8.05;;
69789;SDS011;57064;52.046;4.800;2022-10-30T17:40:10;17.48;;;8.38;;
69789;SDS011;57064;52.046;4.800;2022-10-30T17:42:36;18.48;;;8.93;;
69789;SDS011;57064;52.046;4.800;2022-10-30T17:45:03;18.10;;;9.77;;
69789;SDS011;57064;52.046;4.800;2022-10-30T17:47:34;22.90;;;13.90;;
69789;SDS011;57064;52.046;4.800;2022-10-30T17:50:02;16.20;;;9.40;;
69789;SDS011;57064;52.046;4.800;2022-10-30T17:52:29;17.02;;;9.63;;
69789;SDS011;57064;52.046;4.800;2022-10-30T17:54:56;19.48;;;8.95;;
69789;SDS011;57064;52.046;4.800;2022-10-30T17:57:22;16.88;;;8.55;;
69789;SDS011;57064;52.046;4.800;2022-10-30T17:59:51;16.50;;;7.95;;
69789;SDS011;57064;52.046;4.800;2022-10-30T18:02:18;15.48;;;7.05;;